Mary Jean II — 2DML4 — position and weather

sailwx.info

Track history (hours):
 
Tides and Currents Weather Stations Pressure Air Temp Water Temp Dewpoint Dewpoint Depression Visibility Wind Speed Wind Dir Waves Ship Positions

Mary Jean II

Last reported at 2018-Apr-03 18:40 UTC. Time now 2018-May-23 23:57 UTC.
Position N 41°24' E 002°25'.
Warning: this ship's position is 50 days out of date.

Length 60 m; draft 3.6 m.

Type: Pleasure craft. MMSI: 235080247.

Date/timePositionNaut miles runAvg speedWind from/ knotsBaromVisibWave heightAir tempDewpointWater temp
2018-Apr-03 18:40N 41°24' E 002°25'210.9
2018-Apr-03 18:30N 41°23' E 002°23'510.8
2018-Apr-03 18:00N 41°21' E 002°17'4 8.7
2018-Apr-03 17:30N 41°21' E 002°11'1 0.0
2018-Apr-02 13:43N 41°23' E 002°11'0 0.0
2018-Apr-02 13:25N 41°23' E 002°11'0 0.0
2018-Apr-02 07:43N 41°23' E 002°11'0 0.0
2018-Apr-01 18:28N 41°23' E 002°11'0 0.0
2018-Mar-31 12:19N 41°23' E 002°11'0 0.0
2018-Mar-31 09:25N 41°23' E 002°11'0 0.0
2018-Mar-31 08:55N 41°23' E 002°11'0 0.0
2018-Mar-29 10:46N 41°23' E 002°11'0 0.0
2018-Mar-29 07:49N 41°23' E 002°11'0 1.5
2018-Mar-29 07:30N 41°22' E 002°11'2 4.2
2018-Mar-29 07:00N 41°21' E 002°13'510.8
2018-Mar-29 06:30N 41°15' E 002°12'713.4
2018-Mar-29 06:00N 41°09' E 002°08'20712.1
2018-Mar-28 12:55N 38°07' W 000°00'612.5
2018-Mar-28 12:28N 38°02' W 000°04'1012.9
2018-Mar-28 11:40N 37°55' W 000°13'213.1
2018-Mar-28 11:30N 37°53' W 000°14'713.1
2018-Mar-28 11:00N 37°47' W 000°19'612.9
2018-Mar-28 10:30N 37°42' W 000°23'612.7
2018-Mar-28 10:00N 37°37' W 000°28'612.5
2018-Mar-28 09:30N 37°32' W 000°33'713.4
2018-Mar-28 09:00N 37°27' W 000°39'713.5
2018-Mar-28 08:30N 37°23' W 000°45'713.0
2018-Mar-28 07:58N 37°18' W 000°52'22212.6
2018-Mar-27 14:23N 36°03' W 005°12'513.1
2018-Mar-27 14:01N 36°05' W 005°18'5 9.7
2018-Mar-27 13:30N 36°07' W 005°23'1 2.8
2018-Mar-27 13:01N 36°09' W 005°22'2 0.4
2018-Mar-27 06:49N 36°06' W 005°21'3 8.3
2018-Mar-27 06:25N 36°03' W 005°20'3 8.4
2018-Mar-27 06:00N 36°00' W 005°19'713.3
2018-Mar-27 05:30N 35°58' W 005°27'  
Track history (hours):
 
Tides and Currents Weather Stations Pressure Air Temp Water Temp Dewpoint Dewpoint Depression Visibility Wind Speed Wind Dir Waves Ship Positions

Mary Jean II

Last reported at 2018-Apr-03 18:40 UTC. Time now 2018-May-23 23:57 UTC.
Position N 41°24' E 002°25'.
Warning: this ship's position is 50 days out of date.

Length 60 m; draft 3.6 m.

Type: Pleasure craft. MMSI: 235080247.

Date/timePositionNaut miles runAvg speedWind from/ knotsBaromVisibWave heightAir tempDewpointWater temp
2018-Apr-03 18:40N 41°24' E 002°25'210.9
2018-Apr-03 18:30N 41°23' E 002°23'510.8
2018-Apr-03 18:00N 41°21' E 002°17'4 8.7
2018-Apr-03 17:30N 41°21' E 002°11'1 0.0
2018-Apr-02 13:43N 41°23' E 002°11'0 0.0
2018-Apr-02 13:25N 41°23' E 002°11'0 0.0
2018-Apr-02 07:43N 41°23' E 002°11'0 0.0
2018-Apr-01 18:28N 41°23' E 002°11'0 0.0
2018-Mar-31 12:19N 41°23' E 002°11'0 0.0
2018-Mar-31 09:25N 41°23' E 002°11'0 0.0
2018-Mar-31 08:55N 41°23' E 002°11'0 0.0
2018-Mar-29 10:46N 41°23' E 002°11'0 0.0
2018-Mar-29 07:49N 41°23' E 002°11'0 1.5
2018-Mar-29 07:30N 41°22' E 002°11'2 4.2
2018-Mar-29 07:00N 41°21' E 002°13'510.8
2018-Mar-29 06:30N 41°15' E 002°12'713.4
2018-Mar-29 06:00N 41°09' E 002°08'20712.1
2018-Mar-28 12:55N 38°07' W 000°00'612.5
2018-Mar-28 12:28N 38°02' W 000°04'1012.9
2018-Mar-28 11:40N 37°55' W 000°13'213.1
2018-Mar-28 11:30N 37°53' W 000°14'713.1
2018-Mar-28 11:00N 37°47' W 000°19'612.9
2018-Mar-28 10:30N 37°42' W 000°23'612.7
2018-Mar-28 10:00N 37°37' W 000°28'612.5
2018-Mar-28 09:30N 37°32' W 000°33'713.4
2018-Mar-28 09:00N 37°27' W 000°39'713.5
2018-Mar-28 08:30N 37°23' W 000°45'713.0
2018-Mar-28 07:58N 37°18' W 000°52'22212.6
2018-Mar-27 14:23N 36°03' W 005°12'513.1
2018-Mar-27 14:01N 36°05' W 005°18'5 9.7
2018-Mar-27 13:30N 36°07' W 005°23'1 2.8
2018-Mar-27 13:01N 36°09' W 005°22'2 0.4
2018-Mar-27 06:49N 36°06' W 005°21'3 8.3
2018-Mar-27 06:25N 36°03' W 005°20'3 8.4
2018-Mar-27 06:00N 36°00' W 005°19'713.3
2018-Mar-27 05:30N 35°58' W 005°27'  

Dump ship's entire track history